Time;durP1;ratioP1;P1;durP2;ratioP2;P2;SDS_P1;SDS_P2;PMS_P1;PMS_P2;Temp;Humidity;BMP_temperature;BMP_pressure;BME280_temperature;BME280_humidity;BME280_pressure;Samples;Min_cycle;Max_cycle;Signal;HPM_P1;HPM_P2
2021/12/05 00:22:50;;;;;;;;;3.00;3.00;;;;;;;;5282618;28;8839;-63
2021/12/05 00:25:29;;;;;;;;;3.00;3.00;;;;;;;;5232484;28;8814;-62
2021/12/05 01:09:01;;;;;;;;;4.00;4.00;;;;;;;;5271130;28;8809;-64
2021/12/05 01:11:45;;;;;;;;;3.00;3.00;;;;;;;;5270954;28;8837;-62
2021/12/05 01:14:33;;;;;;;;;8.20;6.80;;;;;;;;5252580;28;8751;-62
2021/12/05 01:17:04;;;;;;;;;1.00;1.00;;;;;;;;5252410;28;8743;-62
2021/12/05 01:19:37;;;;;;;;;1.00;1.00;;;;;;;;5252108;28;9547;-63
2021/12/05 01:22:30;;;;;;;;;1.40;1.40;;;;;;;;5270715;28;8819;-63
2021/12/05 01:25:31;;;;;;;;;1.00;1.00;;;;;;;;5236673;28;8834;-63
2021/12/05 01:31:11;;;;;;;;;3.00;3.00;;;;;;;;5229043;28;8766;-63
2021/12/05 01:33:58;;;;;;;;;1.00;1.00;;;;;;;;5235443;28;8771;-63
2021/12/05 01:36:46;;;;;;;;;1.00;1.00;;;;;;;;5235783;28;9516;-63
2021/12/05 01:53:19;;;;;;;;;1.00;1.00;;;;;;;;5251334;28;8778;-64
2021/12/05 02:39:37;;;;;;;;;4.00;4.00;;;;;;;;5268788;28;8911;-63
2021/12/05 02:42:22;;;;;;;;;0.00;0.00;;;;;;;;5234254;28;8758;-62
2021/12/05 02:44:54;;;;;;;;;1.40;1.40;;;;;;;;5233916;28;8786;-64
2021/12/05 02:47:28;;;;;;;;;8.40;8.20;;;;;;;;5233627;28;8791;-65
2021/12/05 02:50:00;;;;;;;;;6.80;6.80;;;;;;;;5233668;28;8818;-65
2021/12/05 02:52:37;;;;;;;;;1.40;1.40;;;;;;;;5250686;28;8774;-65
2021/12/05 02:55:11;;;;;;;;;3.20;3.00;;;;;;;;5268006;28;8774;-64
2021/12/05 02:57:56;;;;;;;;;1.00;1.00;;;;;;;;5250291;28;8832;-64
2021/12/05 03:01:09;;;;;;;;;0.80;0.80;;;;;;;;5250641;28;8830;-65
2021/12/05 03:03:39;;;;;;;;;0.80;0.00;;;;;;;;5250299;28;8774;-65
2021/12/05 03:06:21;;;;;;;;;0.00;0.00;;;;;;;;5250112;28;8855;-65
2021/12/05 03:09:05;;;;;;;;;3.00;3.00;;;;;;;;5234205;28;8767;-64
2021/12/05 03:11:37;;;;;;;;;4.00;4.00;;;;;;;;5250334;28;9554;-63
2021/12/05 03:14:10;;;;;;;;;8.60;7.40;;;;;;;;5249632;28;8802;-64
2021/12/05 03:16:43;;;;;;;;;4.00;4.00;;;;;;;;5250262;28;8786;-64
2021/12/05 03:19:16;;;;;;;;;6.00;4.00;;;;;;;;5232426;28;8824;-63
2021/12/05 03:21:49;;;;;;;;;6.00;6.00;;;;;;;;5267843;28;8793;-64
2021/12/05 03:24:24;;;;;;;;;1.00;1.00;;;;;;;;5233092;28;8778;-64
2021/12/05 03:26:57;;;;;;;;;7.60;5.80;;;;;;;;5249719;28;8794;-64
2021/12/05 03:29:29;;;;;;;;;10.80;10.80;;;;;;;;5249574;28;8881;-64
2021/12/05 03:32:01;;;;;;;;;7.40;7.40;;;;;;;;5250018;28;8875;-64
2021/12/05 03:34:33;;;;;;;;;6.60;6.20;;;;;;;;5249394;28;8805;-64
2021/12/05 03:37:08;;;;;;;;;6.60;6.60;;;;;;;;5250707;28;8864;-66
2021/12/05 03:39:40;;;;;;;;;7.00;7.00;;;;;;;;5232748;28;8807;-64
2021/12/05 03:42:11;;;;;;;;;8.00;5.00;;;;;;;;5249573;28;8775;-64
2021/12/05 03:44:44;;;;;;;;;4.00;4.00;;;;;;;;5267246;28;8881;-64
2021/12/05 03:47:15;;;;;;;;;10.40;10.40;;;;;;;;5233218;28;8787;-63
2021/12/05 03:49:47;;;;;;;;;3.40;3.40;;;;;;;;5267279;28;8889;-64
2021/12/05 03:52:36;;;;;;;;;7.80;6.60;;;;;;;;5249262;28;8778;-63
2021/12/05 03:55:10;;;;;;;;;6.00;6.00;;;;;;;;5249194;28;9466;-64
2021/12/05 03:57:42;;;;;;;;;3.00;3.00;;;;;;;;5216082;28;9477;-64
2021/12/05 04:00:22;;;;;;;;;6.20;6.20;;;;;;;;5267483;28;8833;-65
2021/12/05 04:03:00;;;;;;;;;5.40;5.40;;;;;;;;5268402;28;8795;-63
2021/12/05 04:05:34;;;;;;;;;4.00;4.00;;;;;;;;5216004;28;8770;-64
2021/12/05 04:08:10;;;;;;;;;4.50;4.50;;;;;;;;5232702;28;8763;-65
2021/12/05 04:10:46;;;;;;;;;6.00;6.00;;;;;;;;5248824;28;9533;-64
2021/12/05 04:13:18;;;;;;;;;3.00;3.00;;;;;;;;5249412;28;8775;-64
2021/12/05 04:15:51;;;;;;;;;9.75;9.75;;;;;;;;5233009;28;8810;-64
2021/12/05 04:18:23;;;;;;;;;4.50;3.25;;;;;;;;5249312;28;8805;-63
2021/12/05 04:20:55;;;;;;;;;4.00;4.00;;;;;;;;5266554;28;8941;-64
2021/12/05 04:23:29;;;;;;;;;3.50;3.50;;;;;;;;5248970;28;8783;-64
2021/12/05 04:26:01;;;;;;;;;6.50;6.00;;;;;;;;5249152;28;8775;-63
2021/12/05 04:28:33;;;;;;;;;2.00;2.00;;;;;;;;5250222;28;8799;-64
2021/12/05 04:31:08;;;;;;;;;15.00;15.00;;;;;;;;5252894;28;8847;-64
2021/12/05 04:33:39;;;;;;;;;4.50;3.75;;;;;;;;5236801;28;9541;-65
2021/12/05 04:36:12;;;;;;;;;2.00;2.00;;;;;;;;5236893;28;8817;-65
2021/12/05 04:38:43;;;;;;;;;8.75;8.75;;;;;;;;5252570;28;8782;-65
2021/12/05 04:41:34;;;;;;;;;10.50;10.00;;;;;;;;5271306;28;8779;-65
2021/12/05 04:44:06;;;;;;;;;3.25;3.25;;;;;;;;5252700;28;8762;-65
2021/12/05 04:46:40;;;;;;;;;6.25;6.25;;;;;;;;5236488;28;8822;-64
2021/12/05 04:49:12;;;;;;;;;3.00;3.00;;;;;;;;5252302;28;8796;-64
2021/12/05 04:51:45;;;;;;;;;9.50;9.50;;;;;;;;5270573;28;8775;-63
2021/12/05 04:54:19;;;;;;;;;6.00;6.00;;;;;;;;5252631;28;8839;-64
2021/12/05 04:56:51;;;;;;;;;6.50;6.50;;;;;;;;5235813;28;8794;-64
2021/12/05 05:03:55;;;;;;;;;1.50;1.50;;;;;;;;5270368;28;8707;-63
2021/12/05 05:06:27;;;;;;;;;4.00;4.00;;;;;;;;5271328;28;8786;-64
2021/12/05 05:08:58;;;;;;;;;3.25;3.25;;;;;;;;5252981;28;8787;-64
2021/12/05 05:11:29;;;;;;;;;6.00;6.00;;;;;;;;5270517;28;8829;-64
2021/12/05 05:14:00;;;;;;;;;17.00;17.00;;;;;;;;5271147;28;8798;-64
2021/12/05 05:21:11;;;;;;;;;0.00;0.00;;;;;;;;5270051;28;8778;-64
2021/12/05 05:24:01;;;;;;;;;4.50;4.50;;;;;;;;5269670;28;8762;-64
2021/12/05 05:40:53;;;;;;;;;6.50;6.25;;;;;;;;5235174;28;8817;-64
2021/12/05 05:46:23;;;;;;;;;13.00;13.00;;;;;;;;5285688;28;8798;-64
2021/12/05 05:49:12;;;;;;;;;16.50;16.50;;;;;;;;5251821;28;8754;-64
2021/12/05 05:51:47;;;;;;;;;9.25;9.25;;;;;;;;5235876;28;8779;-63
2021/12/05 05:54:19;;;;;;;;;7.00;7.00;;;;;;;;5234969;28;8779;-63
2021/12/05 05:56:56;;;;;;;;;19.25;18.50;;;;;;;;5270033;28;8798;-65
2021/12/05 05:59:38;;;;;;;;;11.50;11.50;;;;;;;;5269656;28;8833;-66
2021/12/05 06:04:59;;;;;;;;;13.50;13.50;;;;;;;;5251586;28;8775;-66
2021/12/05 06:07:30;;;;;;;;;12.25;11.25;;;;;;;;5251075;28;8779;-65
2021/12/05 06:10:02;;;;;;;;;7.25;6.25;;;;;;;;5250931;28;8779;-64
2021/12/05 06:12:34;;;;;;;;;8.50;8.50;;;;;;;;5269005;28;8909;-63
2021/12/05 06:15:08;;;;;;;;;15.25;15.25;;;;;;;;5269123;28;9634;-64
2021/12/05 06:17:40;;;;;;;;;12.00;12.00;;;;;;;;5250799;28;8779;-66
2021/12/05 06:20:16;;;;;;;;;17.25;13.00;;;;;;;;5268836;28;8830;-62
2021/12/05 06:22:48;;;;;;;;;13.00;13.00;;;;;;;;5268686;28;8778;-62
2021/12/05 06:25:23;;;;;;;;;7.50;7.50;;;;;;;;5234320;28;8759;-62
2021/12/05 06:27:57;;;;;;;;;19.50;19.00;;;;;;;;5250896;28;9584;-62
2021/12/05 06:30:37;;;;;;;;;5.25;5.25;;;;;;;;5250656;28;8817;-64
2021/12/05 06:41:47;;;;;;;;;7.00;7.00;;;;;;;;5230459;28;8809;-63
2021/12/05 06:47:11;;;;;;;;;12.00;11.50;;;;;;;;5229208;28;8820;-64
2021/12/05 06:49:44;;;;;;;;;4.50;4.50;;;;;;;;5245616;28;8777;-64
2021/12/05 06:56:37;;;;;;;;;18.00;18.00;;;;;;;;5247130;28;8807;-64
2021/12/05 06:59:08;;;;;;;;;4.00;4.00;;;;;;;;5229733;28;8932;-64
2021/12/05 07:01:40;;;;;;;;;10.25;10.25;;;;;;;;5229279;28;8781;-62
2021/12/05 07:04:42;;;;;;;;;13.00;13.00;;;;;;;;5212721;28;8804;-63
2021/12/05 07:07:06;;;;;;;;;25.00;22.00;;;;;;;;5212087;28;8777;-63
2021/12/05 07:09:38;;;;;;;;;4.00;4.00;;;;;;;;5229395;28;8803;-63
2021/12/05 07:22:58;;;;;;;;;7.50;7.50;;;;;;;;5208274;28;11529;-63
2021/12/05 07:25:37;;;;;;;;;15.75;14.50;;;;;;;;5208340;28;8979;-63
2021/12/05 07:42:26;;;;;;;;;12.75;12.75;;;;;;;;5141766;28;8763;-64
2021/12/05 07:45:02;;;;;;;;;10.25;9.50;;;;;;;;5175565;28;8861;-63
2021/12/05 07:47:36;;;;;;;;;5.00;5.00;;;;;;;;5141077;28;8802;-63
2021/12/05 08:16:06;;;;;;;;;8.50;8.50;;;;;;;;5198474;28;8812;-66
2021/12/05 08:18:38;;;;;;;;;16.25;14.50;;;;;;;;5218776;28;8769;-66
2021/12/05 08:21:27;;;;;;;;;7.75;6.75;;;;;;;;5237414;28;8839;-65
2021/12/05 08:23:58;;;;;;;;;13.67;13.67;;;;;;;;5268488;28;8785;-66
2021/12/05 08:26:33;;;;;;;;;9.00;9.00;;;;;;;;5253029;28;9456;-66
2021/12/05 08:29:16;;;;;;;;;5.00;5.00;;;;;;;;5201769;28;8796;-64
2021/12/05 08:32:17;;;;;;;;;9.75;9.75;;;;;;;;5237616;28;8797;-65
2021/12/05 08:35:46;;;;;;;;;9.50;8.00;;;;;;;;5234937;28;8777;-66
2021/12/05 09:26:09;;;;;;;;;31.75;30.75;;;;;;;;5146309;28;8785;-64
2021/12/05 10:13:53;;;;;;;;;15.25;13.50;;;;;;;;5163064;28;8832;-65
2021/12/05 10:20:14;;;;;;;;;29.00;24.75;;;;;;;;5150148;28;8813;-64
2021/12/05 10:33:53;;;;;;;;;11.00;11.00;;;;;;;;5145600;28;8799;-64
2021/12/05 10:36:27;;;;;;;;;17.00;17.00;;;;;;;;5162052;28;8783;-65
2021/12/05 10:39:03;;;;;;;;;21.50;21.50;;;;;;;;5161139;28;8798;-65
2021/12/05 10:41:48;;;;;;;;;15.25;13.50;;;;;;;;5161737;28;8810;-65
2021/12/05 10:44:19;;;;;;;;;8.25;8.25;;;;;;;;5145487;28;9588;-64
2021/12/05 10:46:51;;;;;;;;;6.75;6.75;;;;;;;;5162282;28;8799;-63
2021/12/05 10:49:22;;;;;;;;;9.25;9.25;;;;;;;;5162469;28;9464;-65
2021/12/05 10:51:57;;;;;;;;;13.50;11.00;;;;;;;;5161350;28;9462;-65
2021/12/05 10:54:54;;;;;;;;;27.75;26.50;;;;;;;;5161756;28;8787;-65
2021/12/05 10:57:28;;;;;;;;;18.50;18.50;;;;;;;;5144909;28;8803;-64
2021/12/05 11:00:09;;;;;;;;;48.33;41.33;;;;;;;;5161085;28;8815;-65
2021/12/05 11:03:14;;;;;;;;;30.25;29.75;;;;;;;;5162821;28;9022;-65
2021/12/05 11:05:45;;;;;;;;;22.50;21.75;;;;;;;;5145275;28;8774;-64
2021/12/05 11:08:35;;;;;;;;;7.25;7.25;;;;;;;;5144273;28;8791;-64
2021/12/05 11:11:10;;;;;;;;;4.50;4.50;;;;;;;;5213894;28;8814;-66
2021/12/05 11:18:04;;;;;;;;;7.75;7.75;;;;;;;;5268049;28;8688;-65
2021/12/05 11:20:39;;;;;;;;;15.00;15.00;;;;;;;;5249538;28;8822;-64
2021/12/05 11:23:17;;;;;;;;;28.00;26.50;;;;;;;;5216209;28;8926;-65
2021/12/05 11:25:48;;;;;;;;;13.00;12.75;;;;;;;;5216355;28;8770;-65
2021/12/05 11:28:24;;;;;;;;;16.00;16.00;;;;;;;;5249511;28;9513;-65
2021/12/05 11:30:56;;;;;;;;;16.00;16.00;;;;;;;;5250307;28;8778;-65
2021/12/05 11:33:28;;;;;;;;;36.00;33.67;;;;;;;;5216303;28;8901;-64
2021/12/05 11:36:00;;;;;;;;;20.33;20.00;;;;;;;;5216304;28;9019;-66
2021/12/05 11:38:33;;;;;;;;;30.33;28.00;;;;;;;;5249375;28;9760;-64
2021/12/05 11:41:07;;;;;;;;;22.75;22.00;;;;;;;;5216328;28;8998;-64
2021/12/05 11:43:40;;;;;;;;;11.50;11.50;;;;;;;;5267523;28;8787;-64
2021/12/05 11:46:25;;;;;;;;;14.50;13.50;;;;;;;;5216194;28;8851;-64
2021/12/05 11:48:56;;;;;;;;;11.00;11.00;;;;;;;;5249772;28;9590;-64
2021/12/05 11:51:48;;;;;;;;;13.50;12.50;;;;;;;;5267586;28;8805;-65
2021/12/05 11:54:27;;;;;;;;;15.50;15.50;;;;;;;;5232385;28;8836;-65
2021/12/05 11:57:18;;;;;;;;;16.00;16.00;;;;;;;;5215970;28;8801;-64
2021/12/05 11:59:49;;;;;;;;;18.00;16.00;;;;;;;;5222654;28;8802;-64
2021/12/05 12:02:24;;;;;;;;;21.67;21.67;;;;;;;;5232759;28;8828;-64
2021/12/05 12:05:19;;;;;;;;;19.50;19.25;;;;;;;;5251660;28;8998;-65
2021/12/05 12:08:02;;;;;;;;;26.67;26.67;;;;;;;;5232469;28;8877;-65
2021/12/05 12:10:57;;;;;;;;;15.50;14.25;;;;;;;;5212423;28;8962;-64
2021/12/05 12:13:35;;;;;;;;;18.00;18.00;;;;;;;;5161947;28;8779;-63
2021/12/05 12:16:08;;;;;;;;;10.00;10.00;;;;;;;;5144106;28;8787;-65
2021/12/05 12:18:40;;;;;;;;;14.00;13.50;;;;;;;;5143941;28;8868;-63
2021/12/05 12:21:14;;;;;;;;;8.00;7.50;;;;;;;;5127790;28;8807;-64
2021/12/05 12:23:47;;;;;;;;;17.25;17.25;;;;;;;;5127736;28;8775;-63
2021/12/05 12:26:18;;;;;;;;;14.25;12.50;;;;;;;;5211541;28;8836;-63
2021/12/05 12:38:06;;;;;;;;;11.50;11.50;;;;;;;;5160796;28;8763;-64
2021/12/05 12:40:37;;;;;;;;;7.00;7.00;;;;;;;;5160407;28;8818;-65
2021/12/05 12:43:10;;;;;;;;;13.00;12.67;;;;;;;;5160984;28;8775;-65
2021/12/05 12:46:13;;;;;;;;;12.75;12.75;;;;;;;;5159787;28;8883;-64
2021/12/05 12:48:44;;;;;;;;;11.00;11.00;;;;;;;;5127942;28;9501;-66
2021/12/05 12:51:30;;;;;;;;;19.00;18.50;;;;;;;;5212773;28;8814;-64
2021/12/05 12:54:04;;;;;;;;;21.67;19.33;;;;;;;;5163455;28;8779;-67
2021/12/05 12:56:35;;;;;;;;;19.00;19.00;;;;;;;;5130440;28;8949;-63
2021/12/05 12:59:12;;;;;;;;;15.00;13.00;;;;;;;;5162933;28;8830;-65
2021/12/05 13:12:41;;;;;;;;;17.75;17.75;;;;;;;;5162730;28;8872;-65
2021/12/05 13:15:19;;;;;;;;;9.75;8.25;;;;;;;;5164700;28;8803;-66
2021/12/05 13:18:05;;;;;;;;;18.67;18.67;;;;;;;;5163298;28;8798;-66
2021/12/05 13:20:47;;;;;;;;;21.33;21.00;;;;;;;;5163189;28;9279;-65
2021/12/05 13:23:21;;;;;;;;;24.33;23.33;;;;;;;;5146448;28;9319;-65
2021/12/05 13:26:02;;;;;;;;;33.67;32.67;;;;;;;;5130406;28;9049;-66
2021/12/05 13:28:38;;;;;;;;;20.33;19.00;;;;;;;;5130543;28;9204;-64
2021/12/05 13:31:32;;;;;;;;;43.75;43.50;;;;;;;;5130438;28;9202;-64
2021/12/05 13:34:24;;;;;;;;;29.33;25.33;;;;;;;;5152264;28;9994;-64
2021/12/05 13:36:55;;;;;;;;;32.33;26.67;;;;;;;;5164179;28;9424;-65
2021/12/05 13:39:46;;;;;;;;;33.33;30.33;;;;;;;;5163994;28;9742;-66
2021/12/05 13:42:22;;;;;;;;;37.33;30.67;;;;;;;;5146887;28;9698;-65
2021/12/05 13:44:59;;;;;;;;;35.33;35.33;;;;;;;;5146537;28;9351;-65
2021/12/05 13:47:32;;;;;;;;;25.67;25.00;;;;;;;;5146232;28;9382;-65
2021/12/05 13:50:19;;;;;;;;;21.00;21.00;;;;;;;;5162101;28;9418;-67
2021/12/05 13:53:08;;;;;;;;;31.00;31.00;;;;;;;;5162328;28;9111;-65
2021/12/05 13:55:41;;;;;;;;;29.33;29.33;;;;;;;;5145470;28;9347;-65
2021/12/05 13:58:32;;;;;;;;;49.25;43.75;;;;;;;;5162034;28;10254;-65
2021/12/05 14:01:03;;;;;;;;;29.67;29.33;;;;;;;;5145425;28;9755;-65
2021/12/05 14:03:55;;;;;;;;;37.33;34.33;;;;;;;;5163643;28;9364;-65
2021/12/05 14:06:28;;;;;;;;;19.33;11.33;;;;;;;;5145979;28;9717;-65
2021/12/05 14:09:08;;;;;;;;;28.67;26.33;;;;;;;;5145944;28;9505;-64
2021/12/05 14:11:51;;;;;;;;;34.67;29.67;;;;;;;;5145479;28;9522;-65
2021/12/05 14:14:24;;;;;;;;;26.67;25.00;;;;;;;;5213387;28;9630;-65
2021/12/05 14:16:58;;;;;;;;;46.25;39.75;;;;;;;;5161874;28;10070;-65
2021/12/05 14:19:32;;;;;;;;;33.00;28.00;;;;;;;;5145282;28;10206;-66
2021/12/05 14:22:06;;;;;;;;;13.00;12.67;;;;;;;;5145448;28;9267;-65
2021/12/05 14:24:39;;;;;;;;;17.33;12.67;;;;;;;;5162020;28;9149;-67
2021/12/05 14:27:13;;;;;;;;;22.00;18.00;;;;;;;;5145315;28;9052;-66
2021/12/05 14:29:45;;;;;;;;;50.00;47.00;;;;;;;;5145117;28;9153;-65
2021/12/05 14:32:28;;;;;;;;;33.67;32.33;;;;;;;;5163052;28;10182;-66
2021/12/05 14:35:22;;;;;;;;;48.00;45.00;;;;;;;;5161649;28;9625;-65
2021/12/05 14:38:12;;;;;;;;;12.00;12.00;;;;;;;;5161870;28;10095;-66
2021/12/05 14:40:43;;;;;;;;;23.33;23.33;;;;;;;;5162920;28;9074;-66
2021/12/05 14:43:33;;;;;;;;;14.33;13.33;;;;;;;;5161719;28;9364;-66
2021/12/05 14:46:04;;;;;;;;;17.00;15.00;;;;;;;;5161520;28;9162;-67
2021/12/05 14:48:35;;;;;;;;;23.67;20.67;;;;;;;;5161563;28;8806;-65
2021/12/05 14:51:38;;;;;;;;;25.33;23.67;;;;;;;;5147353;28;8795;-64
2021/12/05 14:54:09;;;;;;;;;20.33;19.67;;;;;;;;5161789;28;9141;-66
2021/12/05 14:56:40;;;;;;;;;13.00;13.00;;;;;;;;5162056;28;9284;-64
2021/12/05 14:59:15;;;;;;;;;34.00;32.00;;;;;;;;5161422;28;9131;-65
2021/12/05 15:01:48;;;;;;;;;10.33;10.33;;;;;;;;5128741;28;9512;-66
2021/12/05 15:04:40;;;;;;;;;18.33;18.00;;;;;;;;5162941;28;10038;-65
2021/12/05 15:07:12;;;;;;;;;13.00;13.00;;;;;;;;5128701;28;9480;-65
2021/12/05 15:09:45;;;;;;;;;18.33;18.33;;;;;;;;5162173;28;9844;-65
2021/12/05 15:12:26;;;;;;;;;13.00;12.00;;;;;;;;5160670;28;9362;-66
2021/12/05 15:15:09;;;;;;;;;15.33;15.00;;;;;;;;5160905;28;9264;-66
2021/12/05 15:17:41;;;;;;;;;12.00;12.00;;;;;;;;5145084;28;9329;-66
2021/12/05 15:20:14;;;;;;;;;9.67;9.67;;;;;;;;5144519;28;9016;-66
2021/12/05 15:22:47;;;;;;;;;17.00;17.00;;;;;;;;5160846;28;8928;-64
2021/12/05 15:25:20;;;;;;;;;43.67;41.67;;;;;;;;5162055;28;9062;-65
2021/12/05 15:27:50;;;;;;;;;29.75;28.25;;;;;;;;5144408;28;9826;-66
2021/12/05 15:30:23;;;;;;;;;21.67;19.00;;;;;;;;5160613;28;9743;-65
2021/12/05 15:32:57;;;;;;;;;20.33;20.33;;;;;;;;5144606;28;9590;-66
2021/12/05 15:35:29;;;;;;;;;16.67;16.00;;;;;;;;5144047;28;9693;-66
2021/12/05 15:38:29;;;;;;;;;21.67;20.67;;;;;;;;5144266;28;9206;-66
2021/12/05 15:41:02;;;;;;;;;30.50;30.00;;;;;;;;5157495;28;9587;-67
2021/12/05 15:43:36;;;;;;;;;32.00;29.67;;;;;;;;5144326;28;10513;-66
2021/12/05 15:46:12;;;;;;;;;4.67;4.67;;;;;;;;5144256;28;9472;-65
2021/12/05 15:48:48;;;;;;;;;21.33;21.33;;;;;;;;5144180;28;9475;-66
2021/12/05 15:51:21;;;;;;;;;13.67;13.67;;;;;;;;5160448;28;9666;-66
2021/12/05 15:53:52;;;;;;;;;18.00;18.00;;;;;;;;5160913;28;9218;-65
2021/12/05 15:56:24;;;;;;;;;20.67;18.33;;;;;;;;5161400;28;9245;-66
2021/12/05 15:59:18;;;;;;;;;24.33;23.67;;;;;;;;5160621;28;8767;-66
2021/12/05 16:01:49;;;;;;;;;29.75;22.75;;;;;;;;5160678;28;10052;-66
2021/12/05 16:04:21;;;;;;;;;18.33;18.00;;;;;;;;5159933;28;9929;-66
2021/12/05 16:06:52;;;;;;;;;22.67;22.00;;;;;;;;5143941;28;9798;-65
2021/12/05 16:09:24;;;;;;;;;30.33;30.33;;;;;;;;5159930;28;9253;-67
2021/12/05 16:12:09;;;;;;;;;31.67;29.67;;;;;;;;5144037;28;9687;-67
2021/12/05 16:14:43;;;;;;;;;35.75;34.00;;;;;;;;5144090;28;9553;-66
2021/12/05 16:17:22;;;;;;;;;62.75;50.00;;;;;;;;5127734;28;10210;-65
2021/12/05 16:20:09;;;;;;;;;18.33;16.67;;;;;;;;5127668;28;10254;-66
2021/12/05 16:22:59;;;;;;;;;6.33;6.33;;;;;;;;5144066;28;9475;-67
2021/12/05 16:25:30;;;;;;;;;4.67;4.67;;;;;;;;5145566;28;9242;-67
2021/12/05 16:28:03;;;;;;;;;22.00;20.00;;;;;;;;5131222;28;9485;-65
2021/12/05 16:30:39;;;;;;;;;10.00;10.00;;;;;;;;5163752;28;9349;-66
2021/12/05 16:33:11;;;;;;;;;15.67;14.33;;;;;;;;5164039;28;9239;-66
2021/12/05 16:35:46;;;;;;;;;29.00;24.00;;;;;;;;5131477;28;9158;-65
2021/12/05 16:38:18;;;;;;;;;23.00;19.33;;;;;;;;5131015;28;10364;-65
2021/12/05 16:40:51;;;;;;;;;51.75;41.50;;;;;;;;5130993;28;9606;-66
2021/12/05 16:43:22;;;;;;;;;30.00;25.00;;;;;;;;5130837;28;10318;-66
2021/12/05 16:46:09;;;;;;;;;28.33;26.67;;;;;;;;5130641;28;9743;-66
2021/12/05 16:48:41;;;;;;;;;30.50;30.25;;;;;;;;5130854;28;9484;-65
2021/12/05 16:51:18;;;;;;;;;49.75;47.50;;;;;;;;5130760;28;10053;-66
2021/12/05 16:53:51;;;;;;;;;59.50;51.00;;;;;;;;5130958;28;11064;-67
2021/12/05 16:56:38;;;;;;;;;24.00;23.00;;;;;;;;5130645;28;10731;-65
2021/12/05 16:59:11;;;;;;;;;15.67;14.67;;;;;;;;5163166;28;10010;-65
2021/12/05 17:01:42;;;;;;;;;16.00;15.67;;;;;;;;5163885;28;10436;-66
2021/12/05 17:04:13;;;;;;;;;0.00;0.00;;;;;;;;5146837;28;9493;-66
2021/12/05 17:06:51;;;;;;;;;35.67;30.33;;;;;;;;5146705;28;8803;-66
2021/12/05 17:09:22;;;;;;;;;31.67;29.00;;;;;;;;5146618;28;9490;-65
2021/12/05 17:11:53;;;;;;;;;28.67;25.67;;;;;;;;5248366;28;9859;-65
2021/12/05 17:14:25;;;;;;;;;27.25;27.00;;;;;;;;5270405;28;8791;-65
2021/12/05 17:16:57;;;;;;;;;21.33;21.00;;;;;;;;5270255;28;11498;-65
2021/12/05 17:19:29;;;;;;;;;30.00;25.75;;;;;;;;5218773;28;9545;-65
2021/12/05 17:22:20;;;;;;;;;24.00;21.00;;;;;;;;5238304;28;10049;-66
2021/12/05 17:24:52;;;;;;;;;17.33;17.33;;;;;;;;5252010;28;9769;-65
2021/12/05 17:27:22;;;;;;;;;22.33;21.00;;;;;;;;5218618;28;9579;-65
2021/12/05 17:29:54;;;;;;;;;21.00;21.00;;;;;;;;5251798;28;9655;-66
2021/12/05 17:32:25;;;;;;;;;23.33;22.67;;;;;;;;5218766;28;8851;-66
2021/12/05 17:34:58;;;;;;;;;14.50;14.50;;;;;;;;5269635;28;9559;-66
2021/12/05 17:37:30;;;;;;;;;27.00;24.67;;;;;;;;5217472;28;8909;-66
2021/12/05 17:40:04;;;;;;;;;19.67;19.00;;;;;;;;5218628;28;9724;-66
2021/12/05 17:42:35;;;;;;;;;15.33;15.00;;;;;;;;5235220;28;9420;-66
2021/12/05 17:45:07;;;;;;;;;9.33;8.33;;;;;;;;5269768;28;10037;-66
2021/12/05 17:47:39;;;;;;;;;13.00;13.00;;;;;;;;5235030;28;8767;-66
2021/12/05 17:50:15;;;;;;;;;9.67;9.67;;;;;;;;5269456;28;9476;-67
2021/12/05 17:52:48;;;;;;;;;7.00;7.00;;;;;;;;5252010;28;9194;-65
2021/12/05 17:55:26;;;;;;;;;1.00;1.00;;;;;;;;5218693;28;9328;-65
2021/12/05 17:58:06;;;;;;;;;8.33;8.33;;;;;;;;5252105;28;9081;-65
2021/12/05 18:00:56;;;;;;;;;4.00;3.00;;;;;;;;5269890;28;9494;-66
2021/12/05 18:03:27;;;;;;;;;9.67;8.33;;;;;;;;5234827;28;9324;-66
2021/12/05 18:06:17;;;;;;;;;7.67;7.67;;;;;;;;5269659;28;9378;-66
2021/12/05 18:08:48;;;;;;;;;10.67;10.67;;;;;;;;5217958;28;9356;-66
2021/12/05 18:11:24;;;;;;;;;19.00;18.00;;;;;;;;5181945;28;9776;-66
2021/12/05 18:13:57;;;;;;;;;21.67;19.67;;;;;;;;5145613;28;9631;-66
2021/12/05 18:16:31;;;;;;;;;24.75;24.75;;;;;;;;5146129;28;9500;-66
2021/12/05 18:19:07;;;;;;;;;16.00;15.00;;;;;;;;5145857;28;9992;-66
2021/12/05 18:21:39;;;;;;;;;19.00;19.00;;;;;;;;5162306;28;9575;-66
2021/12/05 18:24:12;;;;;;;;;2.33;2.33;;;;;;;;5146005;28;9472;-66
2021/12/05 18:26:44;;;;;;;;;12.33;12.33;;;;;;;;5161677;28;10195;-65
2021/12/05 18:29:17;;;;;;;;;16.67;16.67;;;;;;;;5161548;28;9490;-64
2021/12/05 18:31:48;;;;;;;;;14.33;14.33;;;;;;;;5145340;28;9410;-65
2021/12/05 18:34:23;;;;;;;;;10.33;10.33;;;;;;;;5161348;28;9493;-66
2021/12/05 18:36:56;;;;;;;;;34.75;32.75;;;;;;;;5144999;28;9700;-65
2021/12/05 18:48:23;;;;;;;;;7.67;7.67;;;;;;;;5162470;28;9271;-65
2021/12/05 18:50:53;;;;;;;;;12.67;12.67;;;;;;;;5162216;28;9521;-65
2021/12/05 18:53:24;;;;;;;;;12.67;12.67;;;;;;;;5162983;28;11508;-65
2021/12/05 18:55:55;;;;;;;;;16.33;15.33;;;;;;;;5161595;28;8787;-65
2021/12/05 18:58:27;;;;;;;;;13.00;12.67;;;;;;;;5162713;28;8918;-65
2021/12/05 19:05:33;;;;;;;;;11.33;11.33;;;;;;;;5162159;28;9676;-65
2021/12/05 19:08:18;;;;;;;;;14.33;13.67;;;;;;;;5145233;28;9564;-65
2021/12/05 19:13:39;;;;;;;;;17.33;17.33;;;;;;;;5162839;28;9489;-66
2021/12/05 19:16:11;;;;;;;;;18.33;15.67;;;;;;;;5161881;28;9718;-66
2021/12/05 19:19:03;;;;;;;;;13.00;13.00;;;;;;;;5161329;28;9570;-66
2021/12/05 19:21:35;;;;;;;;;12.67;12.00;;;;;;;;5128855;28;9789;-65
2021/12/05 19:24:08;;;;;;;;;5.33;5.33;;;;;;;;5128846;28;9504;-66
2021/12/05 19:26:38;;;;;;;;;17.33;17.33;;;;;;;;5160507;28;9374;-67
2021/12/05 19:29:10;;;;;;;;;12.00;12.00;;;;;;;;5144560;28;9812;-66
2021/12/05 19:31:41;;;;;;;;;11.33;11.33;;;;;;;;5128498;28;8807;-65
2021/12/05 19:34:12;;;;;;;;;14.33;13.67;;;;;;;;5161632;28;9544;-65
2021/12/05 19:41:06;;;;;;;;;14.33;14.33;;;;;;;;5161923;28;8759;-67
2021/12/05 19:43:38;;;;;;;;;9.00;9.00;;;;;;;;5144254;28;9629;-65
2021/12/05 19:46:11;;;;;;;;;7.00;7.00;;;;;;;;5160410;28;10240;-65
2021/12/05 19:48:43;;;;;;;;;7.00;7.00;;;;;;;;5128341;28;9429;-67
2021/12/05 19:51:16;;;;;;;;;5.00;4.67;;;;;;;;5128606;28;9557;-67
2021/12/05 19:53:48;;;;;;;;;7.00;7.00;;;;;;;;5128693;28;9489;-65
2021/12/05 19:56:20;;;;;;;;;12.00;10.67;;;;;;;;5160230;28;9650;-66
2021/12/05 19:58:51;;;;;;;;;8.33;8.33;;;;;;;;5160192;28;9650;-65
2021/12/05 20:01:22;;;;;;;;;1.00;1.00;;;;;;;;5160248;28;9658;-66
2021/12/05 20:03:53;;;;;;;;;4.00;4.00;;;;;;;;5128437;28;8795;-66
2021/12/05 20:06:24;;;;;;;;;0.33;0.33;;;;;;;;5161492;28;10139;-66
2021/12/05 20:08:55;;;;;;;;;3.33;3.00;;;;;;;;5161452;28;8783;-66
2021/12/05 20:11:25;;;;;;;;;3.00;3.00;;;;;;;;5225363;28;8917;-66
2021/12/05 20:13:59;;;;;;;;;3.67;3.67;;;;;;;;5249286;28;8781;-65
2021/12/05 20:16:31;;;;;;;;;9.00;7.67;;;;;;;;5216016;28;8797;-65
2021/12/05 20:19:03;;;;;;;;;8.33;8.33;;;;;;;;5267187;28;9178;-65
2021/12/05 20:21:35;;;;;;;;;12.67;12.67;;;;;;;;5215618;28;9493;-66
2021/12/05 20:24:07;;;;;;;;;4.67;4.67;;;;;;;;5215871;28;9455;-66
2021/12/05 20:26:38;;;;;;;;;8.33;7.00;;;;;;;;5232505;28;9262;-66
2021/12/05 20:29:09;;;;;;;;;7.00;6.33;;;;;;;;5232255;28;11419;-66
2021/12/05 20:31:40;;;;;;;;;0.33;0.33;;;;;;;;5232948;28;10244;-66
2021/12/05 20:34:11;;;;;;;;;7.00;6.00;;;;;;;;5267229;28;9453;-66
2021/12/05 20:36:43;;;;;;;;;1.67;1.67;;;;;;;;5267138;28;8787;-65
2021/12/05 20:39:14;;;;;;;;;3.00;3.00;;;;;;;;5215568;28;8786;-66
2021/12/05 20:41:45;;;;;;;;;0.00;0.00;;;;;;;;5267140;28;9367;-66
2021/12/05 20:44:16;;;;;;;;;2.33;2.33;;;;;;;;5267321;28;8834;-66
2021/12/05 20:46:47;;;;;;;;;6.00;6.00;;;;;;;;5232489;28;8790;-65
2021/12/05 20:49:21;;;;;;;;;7.00;6.67;;;;;;;;5248956;28;9751;-65
2021/12/05 20:51:52;;;;;;;;;3.67;3.67;;;;;;;;5266698;28;9758;-66
2021/12/05 20:54:25;;;;;;;;;3.00;3.00;;;;;;;;5249522;28;9574;-67
2021/12/05 20:56:56;;;;;;;;;3.67;3.67;;;;;;;;5248946;28;9481;-66
2021/12/05 20:59:28;;;;;;;;;3.00;1.00;;;;;;;;5266403;28;9555;-66
2021/12/05 21:02:17;;;;;;;;;4.00;4.00;;;;;;;;5267094;28;10404;-66
2021/12/05 21:05:07;;;;;;;;;0.00;0.00;;;;;;;;5252343;28;9763;-67
2021/12/05 21:07:46;;;;;;;;;1.00;1.00;;;;;;;;5215698;28;9328;-67
2021/12/05 21:10:41;;;;;;;;;3.33;3.33;;;;;;;;5251436;28;9515;-67
2021/12/05 21:13:13;;;;;;;;;3.00;3.00;;;;;;;;5234975;28;9478;-66
2021/12/05 21:15:46;;;;;;;;;0.00;0.00;;;;;;;;5235593;28;9490;-67
2021/12/05 21:18:19;;;;;;;;;7.00;7.00;;;;;;;;5235912;28;9414;-66
2021/12/05 21:20:52;;;;;;;;;10.00;9.50;;;;;;;;5252255;28;10612;-66
2021/12/05 21:23:24;;;;;;;;;8.75;8.00;;;;;;;;5236403;28;9853;-66
2021/12/05 21:25:56;;;;;;;;;8.25;8.25;;;;;;;;5252032;28;9944;-66
2021/12/05 21:28:27;;;;;;;;;7.00;7.00;;;;;;;;5269954;28;9827;-66
2021/12/05 21:30:59;;;;;;;;;9.33;9.33;;;;;;;;5269988;28;9829;-66
2021/12/05 21:33:31;;;;;;;;;9.25;7.50;;;;;;;;5235477;28;11394;-66
2021/12/05 21:36:03;;;;;;;;;12.75;12.50;;;;;;;;5251913;28;9753;-66
2021/12/05 21:38:35;;;;;;;;;4.00;4.00;;;;;;;;5218773;28;10029;-67
2021/12/05 21:41:08;;;;;;;;;0.00;0.00;;;;;;;;5251912;28;9576;-67
2021/12/05 21:43:40;;;;;;;;;6.67;6.67;;;;;;;;5269799;28;9554;-66
2021/12/05 21:46:13;;;;;;;;;4.00;4.00;;;;;;;;5235157;28;9630;-65